Time;durP1;ratioP1;P1;durP2;ratioP2;P2;SDS_P1;SDS_P2;PMS_P1;PMS_P2;Temp;Humidity;BMP_temperature;BMP_pressure;BME280_temperature;BME280_humidity;BME280_pressure;Samples;Min_cycle;Max_cycle;Signal;HPM_P1;HPM_P2
2023/03/31 00:00:35;;;;;;;36.55;7.28;;;9.90;99.90;;;;;;6155713;23;20017;-79
2023/03/31 00:03:01;;;;;;;32.88;7.57;;;9.90;99.90;;;;;;6155664;23;20009;-79
2023/03/31 00:05:27;;;;;;;32.55;6.95;;;10.00;99.90;;;;;;6128958;23;20056;-79
2023/03/31 00:07:59;;;;;;;31.92;8.23;;;10.00;99.90;;;;;;6105126;23;20016;-79
2023/03/31 00:10:35;;;;;;;38.85;7.88;;;10.00;99.90;;;;;;6129759;23;20020;-79
2023/03/31 00:13:01;;;;;;;38.42;8.00;;;10.00;99.90;;;;;;6129189;23;20013;-79
2023/03/31 00:15:27;;;;;;;37.22;8.02;;;10.00;99.90;;;;;;6129267;23;20017;-79
2023/03/31 00:17:53;;;;;;;35.50;7.45;;;10.00;99.90;;;;;;6129497;23;20076;-79
2023/03/31 00:20:19;;;;;;;33.13;7.38;;;10.10;99.90;;;;;;6104496;23;20380;-79
2023/03/31 00:22:47;;;;;;;35.97;9.30;;;10.10;99.90;;;;;;6155301;23;20496;-79
2023/03/31 00:25:15;;;;;;;36.35;7.88;;;10.00;99.90;;;;;;6154485;23;20017;-79
2023/03/31 00:27:44;;;;;;;35.60;7.70;;;10.10;99.90;;;;;;6154869;23;20441;-79
2023/03/31 00:30:14;;;;;;;31.45;6.95;;;10.10;99.90;;;;;;6104267;23;20018;-79
2023/03/31 00:32:40;;;;;;;38.38;7.80;;;10.10;99.90;;;;;;6128904;23;20475;-79
2023/03/31 00:35:05;;;;;;;37.95;7.80;;;10.10;99.90;;;;;;6128833;23;20017;-79
2023/03/31 00:37:34;;;;;;;36.05;7.25;;;10.00;99.90;;;;;;6104049;23;20014;-78
2023/03/31 00:40:00;;;;;;;37.38;7.70;;;10.10;99.90;;;;;;6103961;23;20024;-78
2023/03/31 00:42:26;;;;;;;34.55;7.10;;;9.90;99.90;;;;;;6155010;23;20013;-78
2023/03/31 00:45:26;;;;;;;32.80;7.47;;;9.90;99.90;;;;;;6104028;23;20021;-78
2023/03/31 00:48:15;;;;;;;36.30;7.38;;;9.90;99.90;;;;;;6051756;23;20048;-78
2023/03/31 00:50:52;;;;;;;39.63;8.23;;;9.90;99.90;;;;;;6104388;23;20017;-78
2023/03/31 00:53:23;;;;;;;37.10;7.75;;;9.80;99.90;;;;;;6123497;23;20017;-78
2023/03/31 00:55:52;;;;;;;29.27;6.70;;;9.80;99.90;;;;;;6098828;23;20061;-78
2023/03/31 00:58:20;;;;;;;36.13;7.82;;;9.90;99.90;;;;;;6123517;23;20061;-80
2023/03/31 01:00:52;;;;;;;30.27;6.90;;;9.90;99.90;;;;;;6124058;23;20018;-78
2023/03/31 01:03:21;;;;;;;31.65;6.53;;;9.90;99.90;;;;;;6098776;23;20476;-78
2023/03/31 01:05:54;;;;;;;33.38;7.00;;;9.80;99.90;;;;;;6124759;23;20092;-78
2023/03/31 01:08:24;;;;;;;30.90;6.68;;;9.80;99.90;;;;;;6125365;23;20092;-79
2023/03/31 01:10:53;;;;;;;37.58;7.85;;;9.80;99.90;;;;;;6099855;23;20268;-80
2023/03/31 01:13:21;;;;;;;34.55;7.05;;;9.70;99.90;;;;;;6100036;23;20422;-78
2023/03/31 01:15:50;;;;;;;32.05;6.57;;;9.70;99.90;;;;;;6125815;23;20413;-78
2023/03/31 01:18:20;;;;;;;27.92;6.53;;;9.60;99.90;;;;;;6099023;23;20010;-78
2023/03/31 01:21:17;;;;;;;30.02;6.47;;;9.60;99.90;;;;;;6098914;23;20046;-78
2023/03/31 01:24:22;;;;;;;29.15;5.95;;;9.60;99.90;;;;;;6124593;23;20014;-79
2023/03/31 01:27:15;;;;;;;29.60;6.30;;;9.50;99.90;;;;;;6124859;23;20525;-78
2023/03/31 01:29:56;;;;;;;29.83;5.82;;;9.50;99.90;;;;;;6123515;23;20352;-79
2023/03/31 01:32:53;;;;;;;31.42;7.20;;;9.40;99.90;;;;;;6123099;23;20018;-79
2023/03/31 01:36:07;;;;;;;27.50;6.10;;;9.40;99.90;;;;;;6098833;23;20028;-78
2023/03/31 01:38:50;;;;;;;26.13;6.35;;;9.40;99.90;;;;;;6122811;23;20025;-78
2023/03/31 01:41:31;;;;;;;29.20;6.40;;;9.30;99.90;;;;;;6124852;23;20013;-79
2023/03/31 01:44:22;;;;;;;23.55;5.60;;;9.30;99.90;;;;;;6123152;23;20445;-79
2023/03/31 01:47:17;;;;;;;29.45;6.43;;;9.30;99.90;;;;;;6098721;23;20033;-78
2023/03/31 01:49:56;;;;;;;30.38;6.22;;;9.20;99.90;;;;;;6123366;23;20014;-79
2023/03/31 01:52:31;;;;;;;25.98;6.22;;;9.20;99.90;;;;;;6139425;23;20029;-79
2023/03/31 01:55:10;;;;;;;29.30;6.50;;;9.20;99.90;;;;;;6154327;23;20331;-78
2023/03/31 01:57:42;;;;;;;28.25;6.90;;;9.20;99.90;;;;;;6128237;23;20009;-78
2023/03/31 02:00:14;;;;;;;28.33;6.15;;;9.30;99.90;;;;;;6154286;23;20014;-78
2023/03/31 02:03:09;;;;;;;32.88;6.38;;;9.20;99.90;;;;;;6154369;23;20010;-78
2023/03/31 02:05:41;;;;;;;29.30;6.00;;;9.20;99.90;;;;;;6127896;23;20359;-78
2023/03/31 02:08:15;;;;;;;30.17;5.97;;;9.20;99.90;;;;;;6127149;23;20032;-78
2023/03/31 02:10:42;;;;;;;;;;;9.20;99.90;;;;;;6154722;23;20336;-79
2023/03/31 02:13:10;;;;;;;26.17;6.68;;;9.20;99.90;;;;;;6127674;23;19913;-78
2023/03/31 02:15:41;;;;;;;32.40;6.45;;;9.30;99.90;;;;;;6127535;23;20010;-78
2023/03/31 02:18:11;;;;;;;20.67;5.18;;;9.20;99.90;;;;;;6127819;23;20389;-78
2023/03/31 02:20:41;;;;;;;27.23;6.20;;;9.20;99.90;;;;;;6149189;23;20020;-78
2023/03/31 02:23:11;;;;;;;36.30;6.13;;;9.20;99.90;;;;;;6126901;23;20044;-78
2023/03/31 02:26:05;;;;;;;28.70;6.70;;;9.20;99.90;;;;;;6154114;23;20017;-78
2023/03/31 02:28:35;;;;;;;31.45;7.45;;;9.20;99.90;;;;;;6103401;23;20432;-78
2023/03/31 02:31:22;;;;;;;32.53;6.28;;;9.20;99.90;;;;;;6103245;23;20009;-79
2023/03/31 02:33:48;;;;;;;30.83;7.30;;;9.20;99.90;;;;;;6103463;23;20184;-78
2023/03/31 02:36:14;;;;;;;23.02;5.25;;;9.20;99.90;;;;;;6153484;23;20097;-77
2023/03/31 02:39:01;;;;;;;32.17;6.18;;;9.20;99.90;;;;;;6127899;23;20071;-78
2023/03/31 02:41:26;;;;;;;28.38;6.10;;;9.30;99.90;;;;;;6127597;23;20013;-79
2023/03/31 02:43:52;;;;;;;31.30;6.57;;;9.30;99.90;;;;;;6153924;23;20405;-78
2023/03/31 02:46:18;;;;;;;28.73;6.88;;;9.40;99.90;;;;;;6127560;23;20014;-78
2023/03/31 02:48:50;;;;;;;28.02;7.13;;;9.50;99.90;;;;;;6127687;23;20013;-78
2023/03/31 02:51:25;;;;;;;23.57;5.37;;;9.40;99.90;;;;;;6127065;23;20044;-79
2023/03/31 02:54:18;;;;;;;31.83;6.15;;;9.40;99.90;;;;;;6127915;23;20341;-78
2023/03/31 02:56:47;;;;;;;23.65;5.53;;;9.40;99.90;;;;;;6153361;23;20018;-78
2023/03/31 02:59:31;;;;;;;27.40;6.57;;;9.50;99.90;;;;;;6153875;23;20017;-78
2023/03/31 03:02:29;;;;;;;21.95;5.95;;;9.50;99.90;;;;;;6102821;23;20048;-78
2023/03/31 03:05:33;;;;;;;23.48;5.80;;;9.50;99.90;;;;;;6125434;23;20041;-78
2023/03/31 03:08:07;;;;;;;;;;;9.40;99.90;;;;;;6103295;23;20020;-78
2023/03/31 03:11:01;;;;;;;24.70;6.05;;;9.50;99.90;;;;;;6103085;23;19943;-79
2023/03/31 03:13:34;;;;;;;29.20;6.00;;;9.50;99.90;;;;;;6102752;23;20045;-78
2023/03/31 03:16:12;;;;;;;23.33;5.75;;;9.50;99.90;;;;;;6153742;23;20085;-79
2023/03/31 03:18:38;;;;;;;23.25;5.47;;;9.40;99.90;;;;;;6127844;23;20009;-79
2023/03/31 03:21:04;;;;;;;22.80;5.60;;;9.40;99.90;;;;;;6153198;23;20068;-79
2023/03/31 03:23:30;;;;;;;24.17;5.25;;;9.30;99.90;;;;;;6153658;23;20365;-78
2023/03/31 03:25:56;;;;;;;21.67;6.38;;;9.30;99.90;;;;;;6127493;23;20357;-78
2023/03/31 03:28:22;;;;;;;20.23;5.57;;;9.40;99.90;;;;;;6127662;23;20067;-79
2023/03/31 03:30:47;;;;;;;28.70;6.30;;;9.30;99.90;;;;;;6127639;23;20053;-78
2023/03/31 03:33:15;;;;;;;21.70;5.70;;;9.40;99.90;;;;;;6127648;23;20017;-78
2023/03/31 03:35:41;;;;;;;23.40;6.20;;;9.50;99.90;;;;;;6126968;23;20013;-78
2023/03/31 03:38:07;;;;;;;20.50;5.85;;;9.40;99.90;;;;;;6127015;23;20388;-78
2023/03/31 03:40:32;;;;;;;18.65;5.78;;;9.40;99.90;;;;;;6127617;23;20020;-78
2023/03/31 03:42:58;;;;;;;20.52;6.30;;;9.40;99.90;;;;;;6153382;23;20013;-78
2023/03/31 03:45:24;;;;;;;19.13;5.85;;;9.50;99.90;;;;;;6153620;23;20320;-78
2023/03/31 03:47:49;;;;;;;19.80;6.05;;;9.70;99.90;;;;;;6102649;23;20020;-78
2023/03/31 03:50:15;;;;;;;20.73;6.35;;;9.50;99.90;;;;;;6152906;23;20049;-78
2023/03/31 03:52:41;;;;;;;24.90;5.95;;;9.50;99.90;;;;;;6152887;23;20448;-78
2023/03/31 03:55:06;;;;;;;20.90;6.53;;;9.50;99.90;;;;;;6153059;23;20092;-79
2023/03/31 03:57:32;;;;;;;21.02;6.53;;;9.50;99.90;;;;;;6153473;23;20045;-79
2023/03/31 03:59:58;;;;;;;20.13;6.40;;;9.50;99.90;;;;;;6127149;23;20417;-79
2023/03/31 04:02:24;;;;;;;19.63;6.75;;;9.60;99.90;;;;;;6153446;23;20044;-78
2023/03/31 04:04:49;;;;;;;18.20;6.85;;;9.60;99.90;;;;;;6152793;23;20005;-78
2023/03/31 04:07:16;;;;;;;19.05;6.35;;;9.70;99.90;;;;;;6153625;23;20017;-78
2023/03/31 04:09:42;;;;;;;18.52;6.07;;;9.60;99.90;;;;;;6152973;23;20014;-79
2023/03/31 04:12:10;;;;;;;16.33;6.30;;;9.70;99.90;;;;;;6126930;23;20041;-79
2023/03/31 04:14:38;;;;;;;20.52;6.85;;;9.70;99.90;;;;;;6153149;23;20021;-77
2023/03/31 04:17:04;;;;;;;16.05;6.75;;;9.70;99.90;;;;;;6126336;23;20017;-80
2023/03/31 04:19:30;;;;;;;18.60;6.63;;;9.70;99.90;;;;;;6127086;23;20092;-80
2023/03/31 04:22:01;;;;;;;21.67;7.97;;;9.70;99.90;;;;;;6102957;23;20014;-80
2023/03/31 04:24:29;;;;;;;16.52;7.47;;;9.70;99.90;;;;;;6127434;23;20158;-80
2023/03/31 04:26:56;;;;;;;18.05;7.05;;;9.70;99.90;;;;;;6127298;23;20073;-80
2023/03/31 04:29:25;;;;;;;18.08;7.70;;;9.80;99.90;;;;;;6153265;23;20028;-79
2023/03/31 04:31:57;;;;;;;17.90;8.23;;;9.70;99.90;;;;;;6126334;23;20331;-80
2023/03/31 04:34:33;;;;;;;22.20;8.50;;;9.80;99.90;;;;;;6126877;23;20298;-79
2023/03/31 04:37:01;;;;;;;18.95;7.78;;;9.80;99.90;;;;;;6127208;23;20014;-79
2023/03/31 04:39:29;;;;;;;19.60;8.20;;;9.80;99.90;;;;;;6103902;23;20017;-80
2023/03/31 04:42:01;;;;;;;18.55;7.38;;;9.80;99.90;;;;;;6104108;23;20017;-79
2023/03/31 04:44:27;;;;;;;19.45;8.98;;;9.80;99.90;;;;;;6104022;23;20005;-80
2023/03/31 04:46:53;;;;;;;19.58;7.93;;;9.80;99.90;;;;;;6103298;23;20195;-79
2023/03/31 04:49:19;;;;;;;19.95;9.13;;;9.70;99.90;;;;;;6155132;23;20060;-78
2023/03/31 04:51:45;;;;;;;17.63;8.77;;;9.80;99.90;;;;;;6123328;23;20397;-78
2023/03/31 04:54:11;;;;;;;20.55;8.95;;;9.70;99.90;;;;;;6123394;23;20010;-78
2023/03/31 04:56:37;;;;;;;23.70;8.38;;;9.70;99.90;;;;;;6123979;23;20006;-77
2023/03/31 04:59:03;;;;;;;21.83;9.15;;;9.70;99.90;;;;;;6123307;23;20457;-78
2023/03/31 05:01:31;;;;;;;20.25;8.55;;;9.70;99.90;;;;;;6098578;23;20041;-79
2023/03/31 05:03:58;;;;;;;18.40;9.32;;;9.70;99.90;;;;;;6123477;23;20018;-79
2023/03/31 05:06:23;;;;;;;19.65;8.10;;;9.70;99.90;;;;;;6125495;23;20091;-79
2023/03/31 05:08:49;;;;;;;18.98;9.38;;;9.70;99.90;;;;;;6123600;23;20014;-79
2023/03/31 05:11:14;;;;;;;20.05;9.40;;;9.70;99.90;;;;;;6123432;23;20017;-79
2023/03/31 05:13:40;;;;;;;21.10;9.68;;;9.80;99.90;;;;;;6125055;23;20334;-79
2023/03/31 05:16:08;;;;;;;17.08;9.75;;;9.70;99.90;;;;;;6098397;23;20117;-79
2023/03/31 05:18:34;;;;;;;18.40;9.13;;;9.70;99.90;;;;;;6124004;23;20022;-79
2023/03/31 05:21:18;;;;;;;22.63;9.45;;;9.70;99.90;;;;;;6123834;23;20077;-79
2023/03/31 05:23:45;;;;;;;19.98;8.70;;;9.80;99.90;;;;;;6099537;23;20105;-79
2023/03/31 05:26:12;;;;;;;16.90;8.00;;;9.80;99.90;;;;;;6099222;23;20014;-79
2023/03/31 05:28:38;;;;;;;20.15;7.75;;;9.80;99.90;;;;;;6124186;23;20006;-78
2023/03/31 05:31:06;;;;;;;15.68;7.18;;;9.80;99.90;;;;;;6098817;23;20112;-78
2023/03/31 05:33:32;;;;;;;15.13;7.05;;;9.80;99.90;;;;;;6099323;23;20009;-81
2023/03/31 05:35:59;;;;;;;18.92;7.97;;;9.80;99.90;;;;;;6124258;23;20069;-79
2023/03/31 05:38:27;;;;;;;19.60;7.32;;;9.90;99.90;;;;;;6123692;23;20014;-79
2023/03/31 05:40:54;;;;;;;15.32;6.72;;;9.70;99.90;;;;;;6123215;23;20018;-79
2023/03/31 05:43:20;;;;;;;21.17;8.10;;;9.80;99.90;;;;;;6123056;23;20018;-78
2023/03/31 05:45:46;;;;;;;18.20;6.68;;;9.80;99.90;;;;;;6122593;23;20016;-80
2023/03/31 05:48:15;;;;;;;17.23;6.85;;;9.80;99.90;;;;;;6123003;23;20441;-78
2023/03/31 05:50:41;;;;;;;20.60;7.60;;;9.80;99.90;;;;;;6124647;23;20010;-79
2023/03/31 05:53:07;;;;;;;17.92;6.47;;;9.80;99.90;;;;;;6149592;23;20006;-79
2023/03/31 05:55:35;;;;;;;19.48;6.85;;;9.80;99.90;;;;;;6154405;23;20083;-79
2023/03/31 05:58:01;;;;;;;20.45;6.68;;;9.80;99.90;;;;;;6154438;23;20013;-78
2023/03/31 06:00:27;;;;;;;17.15;6.65;;;9.80;99.90;;;;;;6127233;23;20439;-79
2023/03/31 06:02:52;;;;;;;14.45;6.20;;;9.80;99.90;;;;;;6127732;23;20028;-78
2023/03/31 06:05:18;;;;;;;20.27;7.13;;;9.80;99.90;;;;;;6103301;23;20026;-77
2023/03/31 06:07:43;;;;;;;19.38;6.97;;;9.80;99.90;;;;;;6128141;23;20013;-78
2023/03/31 06:10:09;;;;;;;13.32;5.80;;;9.80;99.90;;;;;;6127717;23;20009;-78
2023/03/31 06:12:35;;;;;;;15.02;6.65;;;9.80;99.90;;;;;;6154139;23;20010;-78
2023/03/31 06:15:02;;;;;;;18.02;8.35;;;9.80;99.90;;;;;;6153327;23;20014;-78
2023/03/31 06:17:28;;;;;;;18.13;6.50;;;9.80;99.90;;;;;;6127704;23;20020;-78
2023/03/31 06:19:53;;;;;;;16.55;6.65;;;9.90;99.90;;;;;;6127508;23;20017;-78
2023/03/31 06:22:19;;;;;;;15.30;6.60;;;9.90;99.90;;;;;;6128016;23;20014;-77
2023/03/31 06:24:45;;;;;;;22.83;7.10;;;9.90;99.90;;;;;;6127411;23;20484;-78
2023/03/31 06:27:11;;;;;;;16.17;6.78;;;9.90;99.90;;;;;;6127616;23;20017;-79
2023/03/31 06:29:36;;;;;;;15.07;6.10;;;9.90;99.90;;;;;;6127211;23;20017;-78
2023/03/31 06:32:03;;;;;;;13.73;6.20;;;10.00;99.90;;;;;;6127563;23;20013;-78
2023/03/31 06:34:29;;;;;;;13.27;6.10;;;9.90;99.90;;;;;;6127361;23;20017;-78
2023/03/31 06:36:55;;;;;;;19.30;6.80;;;9.90;99.90;;;;;;6127175;23;20068;-79
2023/03/31 06:39:24;;;;;;;15.45;6.00;;;9.90;99.90;;;;;;6127503;23;20023;-79
2023/03/31 06:41:49;;;;;;;14.00;5.70;;;10.00;99.90;;;;;;6127063;23;20071;-79
2023/03/31 06:44:15;;;;;;;12.50;6.05;;;10.00;99.90;;;;;;6126433;23;20100;-79
2023/03/31 06:46:42;;;;;;;15.60;6.57;;;10.00;99.90;;;;;;6153569;23;20441;-79
2023/03/31 06:49:07;;;;;;;12.93;6.18;;;10.10;99.90;;;;;;6126751;23;20014;-79
2023/03/31 06:51:33;;;;;;;13.23;6.10;;;10.00;99.90;;;;;;6122057;23;20093;-78
2023/03/31 06:53:58;;;;;;;13.45;6.20;;;10.00;99.90;;;;;;6122010;23;20093;-78
2023/03/31 06:56:26;;;;;;;14.02;6.38;;;10.00;99.90;;;;;;6124032;23;20121;-78
2023/03/31 06:58:51;;;;;;;11.48;5.65;;;10.00;99.90;;;;;;6121375;23;20021;-78
2023/03/31 07:01:17;;;;;;;15.48;6.35;;;10.00;99.90;;;;;;6123562;23;20052;-78
2023/03/31 07:03:43;;;;;;;14.57;5.57;;;10.00;99.90;;;;;;6123783;23;20101;-78
2023/03/31 07:06:08;;;;;;;12.10;5.57;;;9.90;99.90;;;;;;6124059;23;20006;-78
2023/03/31 07:08:35;;;;;;;15.82;6.07;;;10.00;99.90;;;;;;6122094;23;20105;-78
2023/03/31 07:11:01;;;;;;;16.13;6.43;;;10.00;99.90;;;;;;6123995;23;20006;-78
2023/03/31 07:13:27;;;;;;;11.43;5.82;;;10.00;99.90;;;;;;6123449;23;20010;-78
2023/03/31 07:15:53;;;;;;;14.15;5.93;;;10.00;99.90;;;;;;6121958;23;20025;-78
2023/03/31 07:18:19;;;;;;;11.38;5.57;;;10.00;99.90;;;;;;6122258;23;20342;-78
2023/03/31 07:20:52;;;;;;;14.55;6.28;;;10.10;99.90;;;;;;6122012;23;20013;-78
2023/03/31 07:23:19;;;;;;;15.85;6.22;;;10.10;99.90;;;;;;6122639;23;20014;-78
2023/03/31 07:25:46;;;;;;;16.45;5.78;;;10.10;99.90;;;;;;6121741;23;20081;-78
2023/03/31 07:28:11;;;;;;;16.95;7.05;;;10.10;99.90;;;;;;6122269;23;20021;-78
2023/03/31 07:30:38;;;;;;;13.55;6.22;;;10.20;99.90;;;;;;6122307;23;20006;-78
2023/03/31 07:33:04;;;;;;;18.33;7.28;;;10.10;99.90;;;;;;6124247;23;20014;-78
2023/03/31 07:35:30;;;;;;;18.58;7.90;;;10.10;99.90;;;;;;6122264;23;20025;-78
2023/03/31 07:37:55;;;;;;;16.13;7.50;;;10.10;99.90;;;;;;6122694;23;20020;-79
2023/03/31 07:40:26;;;;;;;12.15;6.32;;;10.10;99.90;;;;;;6121422;23;20459;-78
2023/03/31 07:42:53;;;;;;;18.08;7.95;;;10.10;99.90;;;;;;6122110;23;20096;-78
2023/03/31 07:45:20;;;;;;;18.75;7.32;;;10.00;99.90;;;;;;6123803;23;20043;-79
2023/03/31 07:47:46;;;;;;;15.85;6.55;;;10.10;99.90;;;;;;6123405;23;20006;-79
2023/03/31 07:50:14;;;;;;;17.40;6.00;;;10.10;99.90;;;;;;6123615;23;20311;-78
2023/03/31 07:52:40;;;;;;;15.48;6.45;;;10.10;99.90;;;;;;6097547;23;20018;-78
2023/03/31 07:55:06;;;;;;;12.20;5.68;;;10.00;99.90;;;;;;6121431;23;20022;-78
2023/03/31 07:57:32;;;;;;;14.27;5.63;;;10.10;99.90;;;;;;6121784;23;20417;-78
2023/03/31 07:59:58;;;;;;;18.48;6.53;;;10.00;99.90;;;;;;6121992;23;20028;-79
2023/03/31 08:02:23;;;;;;;11.75;5.28;;;10.10;99.90;;;;;;6121717;23;20037;-79
2023/03/31 08:04:49;;;;;;;12.82;5.78;;;10.10;99.90;;;;;;6121857;23;20327;-79
2023/03/31 08:07:16;;;;;;;11.63;5.13;;;10.10;99.90;;;;;;6121978;23;20381;-78
2023/03/31 08:09:46;;;;;;;12.25;4.85;;;10.10;99.90;;;;;;6121658;23;20319;-78
2023/03/31 08:12:15;;;;;;;13.35;6.38;;;10.00;99.90;;;;;;6121932;23;20014;-78
2023/03/31 08:14:41;;;;;;;13.80;6.38;;;10.10;99.90;;;;;;6124154;23;20032;-79
2023/03/31 08:17:06;;;;;;;14.95;7.05;;;10.10;99.90;;;;;;6125787;23;20014;-78
2023/03/31 08:19:32;;;;;;;15.23;5.90;;;10.10;99.90;;;;;;6100155;23;20020;-79
2023/03/31 08:21:58;;;;;;;13.98;6.28;;;10.10;99.90;;;;;;6126016;23;20020;-79
2023/03/31 08:24:24;;;;;;;12.35;6.32;;;10.20;99.90;;;;;;6098740;23;20037;-79
2023/03/31 08:26:49;;;;;;;12.50;6.05;;;10.20;99.90;;;;;;6123819;23;20025;-78
2023/03/31 08:29:15;;;;;;;12.55;5.68;;;10.30;99.90;;;;;;6125441;23;20006;-79
2023/03/31 08:31:40;;;;;;;14.43;6.10;;;10.30;99.90;;;;;;6125185;23;20077;-79
2023/03/31 08:34:06;;;;;;;16.67;6.53;;;10.50;99.90;;;;;;6123646;23;20335;-79
2023/03/31 08:36:32;;;;;;;14.52;7.32;;;10.40;99.90;;;;;;6125798;23;20414;-78
2023/03/31 08:38:58;;;;;;;17.52;7.72;;;10.50;99.90;;;;;;6125416;23;20014;-79
2023/03/31 08:41:30;;;;;;;14.63;5.65;;;10.50;99.90;;;;;;6123990;23;20097;-79
2023/03/31 08:43:57;;;;;;;21.83;7.13;;;10.50;99.90;;;;;;6124008;23;20294;-79
2023/03/31 08:46:26;;;;;;;13.35;5.45;;;10.60;99.90;;;;;;6123877;23;20021;-79
2023/03/31 08:48:54;;;;;;;14.75;5.78;;;10.60;99.90;;;;;;6099734;23;20030;-79
2023/03/31 08:51:34;;;;;;;13.27;6.07;;;10.60;99.90;;;;;;6102435;23;20009;-79
2023/03/31 08:54:03;;;;;;;10.93;4.60;;;10.70;99.90;;;;;;6128059;23;20340;-79
2023/03/31 08:56:39;;;;;;;16.52;5.40;;;10.70;99.90;;;;;;6155196;23;20041;-79
2023/03/31 08:59:06;;;;;;;13.32;5.78;;;10.70;99.90;;;;;;6129104;23;20080;-79
2023/03/31 09:02:14;;;;;;;12.45;5.38;;;10.80;99.90;;;;;;6128339;23;20021;-79
2023/03/31 09:05:18;;;;;;;15.65;4.75;;;10.80;99.90;;;;;;6104177;23;20041;-80
2023/03/31 09:07:55;;;;;;;16.88;5.82;;;10.80;99.90;;;;;;5960018;23;20015;-79
2023/03/31 09:10:34;;;;;;;18.20;6.35;;;10.80;99.90;;;;;;5984060;23;20016;-79
2023/03/31 09:13:09;;;;;;;15.32;5.55;;;10.80;99.90;;;;;;5984099;23;20016;-79
2023/03/31 09:15:49;;;;;;;11.90;5.10;;;10.80;99.90;;;;;;5960447;23;20111;-79
2023/03/31 09:18:29;;;;;;;11.80;5.47;;;10.80;99.90;;;;;;6007503;23;20207;-79
2023/03/31 09:21:20;;;;;;;15.40;5.47;;;10.80;99.90;;;;;;5983920;23;20020;-79
2023/03/31 09:24:11;;;;;;;14.50;4.97;;;10.80;99.90;;;;;;5941051;23;20020;-79
2023/03/31 09:27:06;;;;;;;16.45;5.68;;;10.90;99.90;;;;;;5960938;23;20064;-79
2023/03/31 09:29:43;;;;;;;16.10;5.15;;;10.90;99.90;;;;;;6007667;23;20128;-79
2023/03/31 09:32:17;;;;;;;14.68;6.07;;;10.90;99.90;;;;;;5960777;23;20024;-79
2023/03/31 09:34:45;;;;;;;13.25;5.47;;;11.00;99.90;;;;;;5984140;23;20026;-79
2023/03/31 09:37:11;;;;;;;13.73;5.40;;;11.10;99.90;;;;;;5983865;23;20035;-78
2023/03/31 09:39:38;;;;;;;14.25;6.13;;;11.10;99.90;;;;;;5984778;23;20055;-79
2023/03/31 09:42:04;;;;;;;13.93;6.32;;;11.10;99.90;;;;;;6080679;23;20021;-79
2023/03/31 09:44:45;;;;;;;13.65;5.10;;;11.20;99.90;;;;;;6103632;23;20024;-79
2023/03/31 09:47:30;;;;;;;14.35;6.35;;;11.20;99.90;;;;;;6154504;23;20527;-79
2023/03/31 09:49:56;;;;;;;20.00;6.65;;;11.30;99.90;;;;;;6155301;23;20009;-81
2023/03/31 09:52:26;;;;;;;12.57;5.25;;;11.30;99.90;;;;;;6122681;23;20010;-79
2023/03/31 09:54:59;;;;;;;15.27;5.55;;;11.40;99.90;;;;;;6098919;23;20065;-79
2023/03/31 09:57:33;;;;;;;14.07;5.50;;;11.40;99.90;;;;;;6123792;23;20025;-80
2023/03/31 10:00:18;;;;;;;17.73;9.60;;;11.50;99.90;;;;;;6099133;23;20018;-80
2023/03/31 10:02:54;;;;;;;16.02;7.70;;;11.60;99.90;;;;;;6098981;23;20065;-79
2023/03/31 10:05:23;;;;;;;9.18;4.70;;;11.80;99.90;;;;;;6122576;23;20147;-80
2023/03/31 10:07:48;;;;;;;10.43;4.65;;;11.80;99.90;;;;;;6123598;23;20018;-80
2023/03/31 10:10:31;;;;;;;14.65;4.90;;;11.90;99.90;;;;;;6099034;23;20341;-79
2023/03/31 10:12:58;;;;;;;13.60;4.88;;;11.80;99.90;;;;;;6099304;23;20010;-79
2023/03/31 10:15:27;;;;;;;14.40;4.75;;;11.90;99.90;;;;;;6098913;23;20068;-79
2023/03/31 10:17:56;;;;;;;11.00;4.68;;;11.90;99.90;;;;;;6098796;23;20040;-80
2023/03/31 10:20:36;;;;;;;10.27;4.22;;;11.90;99.90;;;;;;6124217;23;20472;-80
2023/03/31 10:23:31;;;;;;;8.35;3.65;;;11.90;99.90;;;;;;6123712;23;20013;-80
2023/03/31 10:25:58;;;;;;;9.73;3.95;;;12.00;99.90;;;;;;6125143;23;20018;-79
2023/03/31 10:28:24;;;;;;;8.75;3.40;;;12.10;99.90;;;;;;6124598;23;20481;-79
2023/03/31 10:31:02;;;;;;;9.45;3.75;;;12.20;99.90;;;;;;6098349;23;20449;-79
2023/03/31 10:33:33;;;;;;;8.98;3.63;;;12.20;99.90;;;;;;6122866;23;20036;-79
2023/03/31 10:36:02;;;;;;;9.75;3.08;;;12.30;99.90;;;;;;6122363;23;20065;-80
2023/03/31 10:38:42;;;;;;;9.05;3.30;;;12.30;99.90;;;;;;6123136;23;20032;-79
2023/03/31 10:41:08;;;;;;;7.47;3.70;;;12.20;99.90;;;;;;6098718;23;20014;-79
2023/03/31 10:43:34;;;;;;;11.48;5.47;;;12.20;99.90;;;;;;6098365;23;20069;-79
2023/03/31 10:46:00;;;;;;;7.10;3.30;;;12.10;99.90;;;;;;6123304;23;20014;-79
2023/03/31 10:48:51;;;;;;;9.10;3.17;;;12.10;99.90;;;;;;6123027;23;20018;-80
2023/03/31 10:51:27;;;;;;;8.45;3.65;;;12.10;99.90;;;;;;6106206;23;20051;-80
2023/03/31 10:53:59;;;;;;;9.55;3.10;;;12.30;99.90;;;;;;6154329;23;20164;-79
2023/03/31 10:56:42;;;;;;;9.98;3.25;;;12.50;99.90;;;;;;6154153;23;20024;-80
2023/03/31 10:59:50;;;;;;;8.70;3.20;;;12.60;99.90;;;;;;6128603;23;20017;-79
2023/03/31 11:02:38;;;;;;;9.85;3.50;;;12.70;99.90;;;;;;6154121;23;20024;-80
2023/03/31 11:05:03;;;;;;;7.97;3.47;;;13.00;99.90;;;;;;6126929;23;20022;-79
2023/03/31 11:07:41;;;;;;;10.40;3.63;;;13.20;99.90;;;;;;6153826;23;20467;-79
2023/03/31 11:10:42;;;;;;;10.20;3.53;;;13.50;99.90;;;;;;6127806;23;20140;-78
2023/03/31 11:13:49;;;;;;;8.05;3.00;;;13.60;99.90;;;;;;6120606;23;20515;-79
2023/03/31 11:16:42;;;;;;;6.78;2.92;;;13.80;99.90;;;;;;6096527;23;20024;-80
2023/03/31 11:19:36;;;;;;;9.70;3.42;;;14.00;99.90;;;;;;6102393;23;20325;-79
2023/03/31 11:22:37;;;;;;;10.48;2.90;;;14.20;99.90;;;;;;6153491;23;20092;-79
2023/03/31 11:25:30;;;;;;;6.43;2.60;;;14.40;99.90;;;;;;6127336;23;20024;-80
2023/03/31 11:28:15;;;;;;;10.65;3.58;;;14.40;99.90;;;;;;6102873;23;20061;-80
2023/03/31 11:31:01;;;;;;;10.60;3.78;;;14.60;99.90;;;;;;6102810;23;20009;-80
2023/03/31 11:33:39;;;;;;;10.63;2.95;;;14.70;99.90;;;;;;6126767;23;20017;-80
2023/03/31 11:36:10;;;;;;;7.63;2.83;;;14.90;99.90;;;;;;6127643;23;20096;-80
2023/03/31 11:39:02;;;;;;;8.65;3.28;;;15.10;99.90;;;;;;6153951;23;20017;-80
2023/03/31 11:41:48;;;;;;;9.60;2.92;;;15.20;99.90;;;;;;6102738;23;20092;-79
2023/03/31 11:44:17;;;;;;;8.30;2.38;;;15.10;99.90;;;;;;6153037;23;20449;-80
2023/03/31 11:46:50;;;;;;;7.25;2.63;;;15.00;99.90;;;;;;6126780;23;20389;-80
2023/03/31 11:49:37;;;;;;;9.27;2.83;;;14.80;99.90;;;;;;6126692;23;20013;-78
2023/03/31 11:52:17;;;;;;;7.18;2.50;;;14.50;99.90;;;;;;6121951;23;20079;-78
2023/03/31 11:54:54;;;;;;;5.55;2.45;;;14.30;99.90;;;;;;6124210;23;20021;-80
2023/03/31 11:57:41;;;;;;;7.22;2.40;;;14.30;99.90;;;;;;6097827;23;20018;-78
2023/03/31 12:00:15;;;;;;;8.48;2.70;;;14.60;99.90;;;;;;6098154;23;20038;-79
2023/03/31 12:03:14;;;;;;;7.88;2.47;;;14.90;99.90;;;;;;6097131;23;20010;-78
2023/03/31 12:05:47;;;;;;;8.95;2.78;;;15.10;99.90;;;;;;6122690;23;20014;-79
2023/03/31 12:08:27;;;;;;;6.75;2.17;;;15.00;99.90;;;;;;6122606;23;20098;-78
2023/03/31 12:11:01;;;;;;;10.23;2.85;;;15.00;99.90;;;;;;6122126;23;20020;-78
2023/03/31 12:13:55;;;;;;;9.10;2.40;;;14.90;99.90;;;;;;6122468;23;20010;-79
2023/03/31 12:16:22;;;;;;;8.25;2.42;;;14.70;99.90;;;;;;6121882;23;20014;-78
2023/03/31 12:19:10;;;;;;;7.20;2.35;;;14.60;99.90;;;;;;6097383;23;20056;-78
2023/03/31 12:21:40;;;;;;;5.45;2.25;;;14.70;99.90;;;;;;6097583;23;20013;-78
2023/03/31 12:24:11;;;;;;;8.02;2.63;;;14.70;99.90;;;;;;6121860;23;20021;-78
2023/03/31 12:27:00;;;;;;;7.78;2.60;;;14.80;99.90;;;;;;6097630;23;20017;-78
2023/03/31 12:29:25;;;;;;;9.70;2.75;;;14.70;99.90;;;;;;6121242;23;20384;-78
2023/03/31 12:31:55;;;;;;;8.50;3.20;;;14.50;99.90;;;;;;6121334;23;20046;-78
2023/03/31 12:34:23;;;;;;;10.98;3.63;;;14.50;99.90;;;;;;6097936;23;20445;-78
2023/03/31 12:36:59;;;;;;;11.98;3.38;;;14.60;99.90;;;;;;6122338;23;20096;-78
2023/03/31 12:39:47;;;;;;;10.85;2.90;;;14.60;99.90;;;;;;6097852;23;20017;-79
2023/03/31 12:42:46;;;;;;;12.10;3.60;;;14.70;99.90;;;;;;6123035;23;20018;-79
2023/03/31 12:45:53;;;;;;;10.68;3.38;;;14.80;99.90;;;;;;6121770;23;20014;-78
2023/03/31 12:48:58;;;;;;;9.50;3.78;;;14.90;99.90;;;;;;6098103;23;20022;-78
2023/03/31 12:51:24;;;;;;;11.60;3.63;;;14.90;99.90;;;;;;6126702;23;20021;-79
2023/03/31 12:54:22;;;;;;;8.07;2.95;;;14.80;99.90;;;;;;6153386;23;20088;-79
2023/03/31 12:57:02;;;;;;;12.30;3.58;;;15.00;99.90;;;;;;6096733;23;20010;-79
2023/03/31 12:59:40;;;;;;;8.73;3.40;;;15.20;99.90;;;;;;6101979;23;20048;-77
2023/03/31 13:02:08;;;;;;;11.23;3.75;;;15.30;99.90;;;;;;6154566;23;20013;-78
2023/03/31 13:04:36;;;;;;;12.23;3.20;;;15.30;99.90;;;;;;6128526;23;20117;-78
2023/03/31 13:07:03;;;;;;;10.93;3.38;;;15.30;99.90;;;;;;6128784;23;20523;-78
2023/03/31 13:09:43;;;;;;;11.40;3.45;;;15.30;99.90;;;;;;6104163;23;20536;-78
2023/03/31 13:12:18;;;;;;;10.15;3.28;;;15.20;99.90;;;;;;6103922;23;20406;-78